createdAt,value
2022-11-05T00:00:35.884Z,28.08
2022-11-05T00:03:21.220Z,22.70
2022-11-05T00:06:18.196Z,28.08
2022-11-05T00:09:03.772Z,25.10
2022-11-05T00:11:49.224Z,23.80
2022-11-05T00:14:34.756Z,25.85
2022-11-05T00:17:01.526Z,26.48
2022-11-05T00:19:28.267Z,24.60
2022-11-05T00:22:13.357Z,23.70
2022-11-05T00:24:58.959Z,22.90
2022-11-05T00:27:25.753Z,22.75
2022-11-05T00:29:52.540Z,21.73
2022-11-05T00:32:19.545Z,20.00
2022-11-05T00:34:46.292Z,23.25
2022-11-05T00:37:13.075Z,20.38
2022-11-05T00:39:39.854Z,18.27
2022-11-05T00:42:25.423Z,20.38
2022-11-05T00:45:00.992Z,19.60
2022-11-05T00:47:46.904Z,19.50
2022-11-05T00:50:14.010Z,16.27
2022-11-05T00:52:55.826Z,18.20
2022-11-05T00:55:30.444Z,19.80
2022-11-05T00:57:57.921Z,18.92
2022-11-05T01:00:27.404Z,17.38
2022-11-05T01:02:57.088Z,19.58
2022-11-05T01:05:24.071Z,19.65
2022-11-05T01:07:53.219Z,17.75
2022-11-05T01:10:20.268Z,17.77
2022-11-05T01:12:47.384Z,22.70
2022-11-05T01:15:14.583Z,17.60
2022-11-05T01:17:41.413Z,20.42
2022-11-05T01:20:08.599Z,21.95
2022-11-05T01:22:35.337Z,19.13
2022-11-05T01:25:02.109Z,18.63
2022-11-05T01:27:28.851Z,20.02
2022-11-05T01:29:55.565Z,21.30
2022-11-05T01:32:22.333Z,20.25
2022-11-05T01:34:49.271Z,19.63
2022-11-05T01:37:16.181Z,20.73
2022-11-05T01:39:42.933Z,22.92
2022-11-05T01:42:21.905Z,22.05
2022-11-05T01:45:03.934Z,20.92
2022-11-05T01:47:42.821Z,23.35
2022-11-05T01:50:24.496Z,22.02
2022-11-05T01:52:57.889Z,24.20
2022-11-05T01:55:28.424Z,22.38
2022-11-05T01:57:57.605Z,22.27
2022-11-05T02:00:25.046Z,25.88
2022-11-05T02:02:51.933Z,22.98
2022-11-05T02:05:18.901Z,24.42
2022-11-05T02:07:47.304Z,21.95
2022-11-05T02:10:18.022Z,22.52
2022-11-05T02:12:47.273Z,24.73
2022-11-05T02:15:17.142Z,24.92
2022-11-05T02:18:15.488Z,23.92
2022-11-05T02:21:06.351Z,18.95
2022-11-05T02:24:09.748Z,24.30
2022-11-05T02:26:48.421Z,23.95
2022-11-05T02:29:33.400Z,23.48
2022-11-05T02:32:07.833Z,25.30
2022-11-05T02:35:01.444Z,30.30
2022-11-05T02:37:41.328Z,24.27
2022-11-05T02:40:21.771Z,26.42
2022-11-05T02:43:15.372Z,25.83
2022-11-05T02:46:01.256Z,28.73
2022-11-05T02:48:54.479Z,26.00
2022-11-05T02:51:31.560Z,23.85
2022-11-05T02:54:28.730Z,27.90
2022-11-05T02:56:56.834Z,23.40
2022-11-05T02:59:23.584Z,23.00
2022-11-05T03:01:52.131Z,25.85
2022-11-05T03:04:22.627Z,23.05
2022-11-05T03:06:58.319Z,23.35
2022-11-05T03:09:48.861Z,25.95
2022-11-05T03:12:39.568Z,20.13
2022-11-05T03:15:26.292Z,20.95
2022-11-05T03:18:17.646Z,21.58
2022-11-05T03:20:54.715Z,22.80
2022-11-05T03:23:26.918Z,24.45
2022-11-05T03:26:20.288Z,24.70
2022-11-05T03:28:53.133Z,25.98
2022-11-05T03:31:21.409Z,19.73
2022-11-05T03:33:50.670Z,18.58
2022-11-05T03:36:24.232Z,18.98
2022-11-05T03:38:54.366Z,24.10
2022-11-05T03:41:23.102Z,21.10
2022-11-05T03:43:54.682Z,17.40
2022-11-05T03:46:41.196Z,18.63
2022-11-05T03:49:16.197Z,18.67
2022-11-05T03:52:09.614Z,16.38
2022-11-05T03:54:36.830Z,18.25
2022-11-05T03:57:24.028Z,16.45
2022-11-05T03:59:51.422Z,16.52
2022-11-05T04:02:20.548Z,15.55
2022-11-05T04:04:47.760Z,13.77
2022-11-05T04:07:33.389Z,19.85
2022-11-05T04:10:19.134Z,15.10
2022-11-05T04:13:04.497Z,13.93
2022-11-05T04:15:51.529Z,18.02
2022-11-05T04:18:18.493Z,18.35
2022-11-05T04:21:03.979Z,18.30
2022-11-05T04:23:49.595Z,17.40
2022-11-05T04:26:16.361Z,19.00
2022-11-05T04:29:07.618Z,12.80
2022-11-05T04:31:34.795Z,16.27
2022-11-05T04:34:01.723Z,16.17
2022-11-05T04:36:28.807Z,20.10
2022-11-05T04:38:55.731Z,17.15
2022-11-05T04:41:22.630Z,15.98
2022-11-05T04:43:49.710Z,13.43
2022-11-05T04:46:16.498Z,16.75
2022-11-05T04:48:43.259Z,20.20
2022-11-05T04:51:10.031Z,18.27
2022-11-05T04:53:36.801Z,19.35
2022-11-05T04:56:18.419Z,19.27
2022-11-05T04:58:45.572Z,17.25
2022-11-05T05:01:30.590Z,18.02
2022-11-05T05:03:57.510Z,21.38
2022-11-05T05:06:24.346Z,18.08
2022-11-05T05:08:51.924Z,17.20
2022-11-05T05:11:21.468Z,16.95
2022-11-05T05:13:49.456Z,16.70
2022-11-05T05:16:23.354Z,16.73
2022-11-05T05:18:51.249Z,13.80
2022-11-05T05:21:38.169Z,17.50
2022-11-05T05:24:11.599Z,13.02
2022-11-05T05:26:41.326Z,17.15
2022-11-05T05:29:09.599Z,14.32
2022-11-05T05:31:36.604Z,14.50
2022-11-05T05:34:04.014Z,15.43
2022-11-05T05:36:31.548Z,14.05
2022-11-05T05:38:58.673Z,13.30
2022-11-05T05:41:25.698Z,17.05
2022-11-05T05:43:52.483Z,13.05
2022-11-05T05:46:19.886Z,13.30
2022-11-05T05:48:51.643Z,13.40
2022-11-05T05:51:19.034Z,11.73
2022-11-05T05:53:46.253Z,13.02
2022-11-05T05:56:15.265Z,10.80
2022-11-05T05:58:42.524Z,13.85
2022-11-05T06:01:18.383Z,11.00
2022-11-05T06:03:46.003Z,9.90
2022-11-05T06:06:14.176Z,10.73
2022-11-05T06:08:41.903Z,9.70
2022-11-05T06:11:17.014Z,8.00
2022-11-05T06:13:43.990Z,9.38
2022-11-05T06:16:11.321Z,11.15
2022-11-05T06:18:38.271Z,11.38
2022-11-05T06:21:10.628Z,9.50
2022-11-05T06:23:39.303Z,10.13
2022-11-05T06:26:08.612Z,13.02
2022-11-05T06:28:36.037Z,10.35
2022-11-05T06:31:03.307Z,9.13
2022-11-05T06:33:30.154Z,11.07
2022-11-05T06:36:01.648Z,10.98
2022-11-05T06:38:29.662Z,8.27
2022-11-05T06:40:59.571Z,10.27
2022-11-05T06:43:27.772Z,10.57
2022-11-05T06:45:56.117Z,10.85
2022-11-05T06:48:23.431Z,10.27
2022-11-05T06:50:50.275Z,9.02
2022-11-05T06:53:17.976Z,11.48
2022-11-05T06:55:45.009Z,9.85
2022-11-05T06:58:11.819Z,10.75
2022-11-05T07:00:38.791Z,10.25
2022-11-05T07:03:07.504Z,8.65
2022-11-05T07:05:37.306Z,8.57
2022-11-05T07:08:04.325Z,8.25
2022-11-05T07:10:31.191Z,7.68
2022-11-05T07:12:58.038Z,8.38
2022-11-05T07:15:24.871Z,7.55
2022-11-05T07:17:57.746Z,7.90
2022-11-05T07:20:27.235Z,8.02
2022-11-05T07:23:05.584Z,10.13
2022-11-05T07:25:35.704Z,9.90
2022-11-05T07:28:03.531Z,8.98
2022-11-05T07:30:31.880Z,6.70
2022-11-05T07:32:58.901Z,5.90
2022-11-05T07:35:26.272Z,9.43
2022-11-05T07:37:54.486Z,8.18
2022-11-05T07:40:23.285Z,7.63
2022-11-05T07:42:52.697Z,10.00
2022-11-05T07:45:20.339Z,7.30
2022-11-05T07:47:52.639Z,8.60
2022-11-05T07:50:21.235Z,11.45
2022-11-05T07:52:49.739Z,8.70
2022-11-05T07:55:19.502Z,7.95
2022-11-05T07:57:48.951Z,8.73
2022-11-05T08:00:21.842Z,11.55
2022-11-05T08:03:08.862Z,8.10
2022-11-05T08:05:38.875Z,10.45
2022-11-05T08:08:08.435Z,7.38
2022-11-05T08:10:36.851Z,10.13
2022-11-05T08:13:05.611Z,7.60
2022-11-05T08:15:33.672Z,6.88
2022-11-05T08:18:10.621Z,7.85
2022-11-05T08:20:39.345Z,13.00
2022-11-05T08:23:08.295Z,7.00
2022-11-05T08:25:35.955Z,8.75
2022-11-05T08:28:06.003Z,9.43
2022-11-05T08:30:33.501Z,9.45
2022-11-05T08:33:12.738Z,8.07
2022-11-05T08:35:40.877Z,13.50
2022-11-05T08:38:10.789Z,6.88
2022-11-05T08:40:38.178Z,8.55
2022-11-05T08:43:07.354Z,9.38
2022-11-05T08:45:38.336Z,11.65
2022-11-05T08:48:11.597Z,8.52
2022-11-05T08:50:39.930Z,8.85
2022-11-05T08:53:08.020Z,9.93
2022-11-05T08:55:35.891Z,9.88
2022-11-05T08:58:07.044Z,10.57
2022-11-05T09:00:37.449Z,10.88
2022-11-05T09:03:07.182Z,7.70
2022-11-05T09:05:38.137Z,10.98
2022-11-05T09:08:11.103Z,11.23
2022-11-05T09:10:39.383Z,8.98
2022-11-05T09:13:09.621Z,8.40
2022-11-05T09:15:41.483Z,10.95
2022-11-05T09:18:13.233Z,11.27
2022-11-05T09:20:40.987Z,9.10
2022-11-05T09:23:09.217Z,9.02
2022-11-05T09:25:37.347Z,10.73
2022-11-05T09:28:26.532Z,10.43
2022-11-05T09:30:58.254Z,10.77
2022-11-05T09:33:28.483Z,10.95
2022-11-05T09:36:01.137Z,7.38
2022-11-05T09:38:28.616Z,10.25
2022-11-05T09:41:09.665Z,8.68
2022-11-05T09:43:56.828Z,13.70
2022-11-05T09:46:30.014Z,8.52
2022-11-05T09:49:05.550Z,12.47
2022-11-05T09:51:34.338Z,14.73
2022-11-05T09:54:03.744Z,8.30
2022-11-05T09:56:33.993Z,10.75
2022-11-05T09:59:17.111Z,12.20
2022-11-05T10:01:45.384Z,7.32
2022-11-05T10:04:20.323Z,6.80
2022-11-05T10:06:54.809Z,11.82
2022-11-05T10:09:25.770Z,7.85
2022-11-05T10:12:12.838Z,7.97
2022-11-05T10:14:49.923Z,10.95
2022-11-05T10:17:25.099Z,13.88
2022-11-05T10:20:02.993Z,6.15
2022-11-05T10:22:29.952Z,8.27
2022-11-05T10:24:57.536Z,6.13
2022-11-05T10:27:30.114Z,5.82
2022-11-05T10:29:57.544Z,6.95
2022-11-05T10:32:34.132Z,6.28
2022-11-05T10:35:07.729Z,7.85
2022-11-05T10:37:40.635Z,8.38
2022-11-05T10:40:25.980Z,7.40
2022-11-05T10:43:05.768Z,4.93
2022-11-05T10:45:50.606Z,4.50
2022-11-05T10:48:21.255Z,5.97
2022-11-05T10:50:49.142Z,6.10
2022-11-05T10:53:23.908Z,9.18
2022-11-05T10:55:51.922Z,6.32
2022-11-05T10:58:24.043Z,6.72
2022-11-05T11:00:54.409Z,4.65
2022-11-05T11:03:40.287Z,4.30
2022-11-05T11:06:31.896Z,5.88
2022-11-05T11:09:04.306Z,5.95
2022-11-05T11:11:34.922Z,4.85
2022-11-05T11:14:18.560Z,7.53
2022-11-05T11:16:49.275Z,6.57
2022-11-05T11:19:34.793Z,5.20
2022-11-05T11:22:05.567Z,3.78
2022-11-05T11:24:50.790Z,5.70
2022-11-05T11:27:30.443Z,3.53
2022-11-05T11:30:05.461Z,5.68
2022-11-05T11:32:39.015Z,6.80
2022-11-05T11:35:09.859Z,5.53
2022-11-05T11:37:42.569Z,3.13
2022-11-05T11:40:36.914Z,4.50
2022-11-05T11:43:13.623Z,3.25
2022-11-05T11:45:49.829Z,4.38
2022-11-05T11:48:22.085Z,6.25
2022-11-05T11:50:50.355Z,4.55
2022-11-05T11:53:20.722Z,5.78
2022-11-05T11:56:21.651Z,5.43
2022-11-05T11:58:57.505Z,10.50
2022-11-05T12:01:35.173Z,4.68
2022-11-05T12:04:26.419Z,5.88
2022-11-05T12:07:24.637Z,6.65
2022-11-05T12:10:14.222Z,6.97
2022-11-05T12:13:03.434Z,6.90
2022-11-05T12:15:52.396Z,9.23
2022-11-05T12:18:28.612Z,6.43
2022-11-05T12:21:14.459Z,7.97
2022-11-05T12:24:08.326Z,6.95
2022-11-05T12:26:42.401Z,7.27
2022-11-05T12:32:30.980Z,6.35
2022-11-05T12:35:24.299Z,5.07
2022-11-05T12:38:30.406Z,5.43
2022-11-05T12:41:16.618Z,6.38
2022-11-05T12:44:03.148Z,6.63
2022-11-05T12:46:38.351Z,5.15
2022-11-05T12:49:20.726Z,6.30
2022-11-05T12:51:53.778Z,7.95
2022-11-05T12:54:48.200Z,6.72
2022-11-05T12:57:17.064Z,5.68
2022-11-05T12:59:49.249Z,7.07
2022-11-05T13:02:51.448Z,5.88
2022-11-05T13:05:35.033Z,6.97
2022-11-05T13:08:16.415Z,7.33
2022-11-05T13:10:54.372Z,6.85
2022-11-05T13:13:47.587Z,3.50
2022-11-05T13:16:56.994Z,6.78
2022-11-05T13:19:50.817Z,8.65
2022-11-05T13:22:36.572Z,3.65
2022-11-05T13:25:21.545Z,3.25
2022-11-05T13:28:00.386Z,5.80
2022-11-05T13:30:34.484Z,7.28
2022-11-05T13:35:47.746Z,3.97
2022-11-05T13:38:45.412Z,4.55
2022-11-05T13:41:28.194Z,7.28
2022-11-05T13:44:00.807Z,6.35
2022-11-05T13:46:46.191Z,3.40
2022-11-05T13:49:25.474Z,4.05
2022-11-05T13:52:01.907Z,6.60
2022-11-05T13:55:02.313Z,13.73
2022-11-05T13:57:35.416Z,5.75
2022-11-05T14:00:11.721Z,7.38
2022-11-05T14:02:44.589Z,4.25
2022-11-05T14:08:42.028Z,5.57
2022-11-05T14:11:37.868Z,6.60
2022-11-05T14:14:10.443Z,10.57
2022-11-05T14:16:49.866Z,7.55
2022-11-05T14:19:21.931Z,5.38
2022-11-05T14:21:52.378Z,4.03
2022-11-05T14:24:27.937Z,6.82
2022-11-05T14:27:02.142Z,9.65
2022-11-05T14:29:48.243Z,5.53
2022-11-05T14:32:25.898Z,5.68
2022-11-05T14:35:04.547Z,3.38
2022-11-05T14:37:40.859Z,6.05
2022-11-05T14:40:23.542Z,8.95
2022-11-05T14:42:57.167Z,5.70
2022-11-05T14:45:50.998Z,10.05
2022-11-05T14:49:14.113Z,6.28
2022-11-05T14:51:46.636Z,5.63
2022-11-05T14:54:38.656Z,11.43
2022-11-05T14:57:06.839Z,11.05
2022-11-05T14:59:51.776Z,6.00
2022-11-05T15:02:23.271Z,6.75
2022-11-05T15:04:53.133Z,5.07
2022-11-05T15:07:23.799Z,5.40
2022-11-05T15:09:54.469Z,8.45
2022-11-05T15:12:38.123Z,10.63
2022-11-05T15:15:29.809Z,6.80
2022-11-05T15:18:37.329Z,8.25
2022-11-05T15:21:05.416Z,6.65
2022-11-05T15:23:45.128Z,4.82
2022-11-05T15:26:42.689Z,4.05
2022-11-05T15:29:31.785Z,5.53
2022-11-05T15:32:00.052Z,5.47
2022-11-05T15:34:36.162Z,5.70
2022-11-05T15:37:12.794Z,5.45
2022-11-05T15:39:45.984Z,4.88
2022-11-05T15:42:17.036Z,3.23
2022-11-05T15:44:48.241Z,5.30
2022-11-05T15:47:27.225Z,8.55
2022-11-05T15:49:56.738Z,5.05
2022-11-05T15:52:31.395Z,4.68
2022-11-05T15:55:08.000Z,9.32
2022-11-05T15:57:40.081Z,7.07
2022-11-05T16:00:26.133Z,5.85
2022-11-05T16:03:01.862Z,6.03
2022-11-05T16:05:43.299Z,2.90
2022-11-05T16:08:27.729Z,6.80
2022-11-05T16:11:02.051Z,7.18
2022-11-05T16:13:43.704Z,6.10
2022-11-05T16:16:13.950Z,7.20
2022-11-05T16:18:42.038Z,5.10
2022-11-05T16:21:19.224Z,6.00
2022-11-05T16:24:00.417Z,7.30
2022-11-05T16:29:51.086Z,6.32
2022-11-05T16:32:31.212Z,6.88
2022-11-05T16:35:05.766Z,7.60
2022-11-05T16:37:41.502Z,10.05
2022-11-05T16:40:18.269Z,7.80
2022-11-05T16:42:51.498Z,10.63
2022-11-05T16:45:21.609Z,7.80
2022-11-05T16:47:49.862Z,11.82
2022-11-05T16:50:23.848Z,14.30
2022-11-05T16:52:51.798Z,10.90
2022-11-05T16:55:21.832Z,9.77
2022-11-05T16:57:53.030Z,10.40
2022-11-05T17:00:22.437Z,11.38
2022-11-05T17:02:50.669Z,12.88
2022-11-05T17:05:22.242Z,15.70
2022-11-05T17:07:49.458Z,16.98
2022-11-05T17:10:19.175Z,12.40
2022-11-05T17:12:46.659Z,12.05
2022-11-05T17:15:21.275Z,11.05
2022-11-05T17:17:49.136Z,14.10
2022-11-05T17:20:40.477Z,8.45
2022-11-05T17:23:14.232Z,15.20
2022-11-05T17:25:44.592Z,12.00
2022-11-05T17:28:14.989Z,12.45
2022-11-05T17:30:47.869Z,15.48
2022-11-05T17:33:19.598Z,15.68
2022-11-05T17:35:47.830Z,10.95
2022-11-05T17:38:15.930Z,11.82
2022-11-05T17:40:44.219Z,13.77
2022-11-05T17:43:11.929Z,14.23
2022-11-05T17:45:57.533Z,14.20
2022-11-05T17:48:39.318Z,12.38
2022-11-05T17:51:26.034Z,13.23
2022-11-05T17:54:00.149Z,12.73
2022-11-05T17:59:55.461Z,12.48
2022-11-05T18:02:44.056Z,14.45
2022-11-05T18:05:23.654Z,15.77
2022-11-05T18:11:01.179Z,14.57
2022-11-05T18:13:45.949Z,12.02
2022-11-05T18:23:49.204Z,14.48
2022-11-05T18:26:25.088Z,16.58
2022-11-05T18:28:52.479Z,14.70
2022-11-05T18:31:21.286Z,19.52
2022-11-05T18:33:49.281Z,15.68
2022-11-05T18:36:23.576Z,13.48
2022-11-05T18:38:51.232Z,15.68
2022-11-05T18:41:19.426Z,16.48
2022-11-05T18:43:46.867Z,16.27
2022-11-05T18:46:29.677Z,11.27
2022-11-05T18:49:04.334Z,16.23
2022-11-05T18:51:32.099Z,17.88
2022-11-05T18:54:00.856Z,12.43
2022-11-05T18:56:28.019Z,13.75
2022-11-05T18:59:21.894Z,15.20
2022-11-05T19:01:43.736Z,18.50
2022-11-05T19:04:11.519Z,17.92
2022-11-05T19:06:39.861Z,13.85
2022-11-05T19:09:09.365Z,14.70
2022-11-05T19:11:37.309Z,14.10
2022-11-05T19:14:04.881Z,12.15
2022-11-05T19:16:33.155Z,13.30
2022-11-05T19:19:07.364Z,11.57
2022-11-05T19:21:34.930Z,13.25
2022-11-05T19:24:03.461Z,19.67
2022-11-05T19:26:32.337Z,13.70
2022-11-05T19:29:02.363Z,11.82
2022-11-05T19:31:30.766Z,13.93
2022-11-05T19:33:58.012Z,13.10
2022-11-05T19:36:25.734Z,13.43
2022-11-05T19:38:59.049Z,16.95
2022-11-05T19:41:27.680Z,15.38
2022-11-05T19:46:35.935Z,14.68
2022-11-05T19:49:05.163Z,14.30
2022-11-05T19:51:33.970Z,12.75
2022-11-05T19:54:02.847Z,14.10
2022-11-05T19:56:33.859Z,14.13
2022-11-05T19:59:03.268Z,13.20
2022-11-05T20:01:34.674Z,11.07
2022-11-05T20:04:05.949Z,12.90
2022-11-05T20:06:38.549Z,13.27
2022-11-05T20:09:25.816Z,11.38
2022-11-05T20:11:54.861Z,16.85
2022-11-05T20:14:23.493Z,17.45
2022-11-05T20:16:51.347Z,15.32
2022-11-05T20:19:22.232Z,13.68
2022-11-05T20:21:54.925Z,14.15
2022-11-05T20:24:25.285Z,13.70
2022-11-05T20:26:57.355Z,14.98
2022-11-05T20:29:30.574Z,13.18
2022-11-05T20:32:03.166Z,19.67
2022-11-05T20:34:32.529Z,20.65
2022-11-05T20:36:59.614Z,15.52
2022-11-05T20:39:26.477Z,17.15
2022-11-05T20:41:53.606Z,13.48
2022-11-05T20:44:21.031Z,13.75
2022-11-05T20:46:48.586Z,14.00
2022-11-05T20:49:18.969Z,11.90
2022-11-05T20:51:50.473Z,12.70
2022-11-05T20:54:17.770Z,18.42
2022-11-05T20:56:44.779Z,16.67
2022-11-05T20:59:11.556Z,15.90
2022-11-05T21:01:38.663Z,15.10
2022-11-05T21:04:07.005Z,14.05
2022-11-05T21:06:36.382Z,11.23
2022-11-05T21:09:04.051Z,13.93
2022-11-05T21:11:51.914Z,13.48
2022-11-05T21:14:19.970Z,12.52
2022-11-05T21:16:49.524Z,12.32
2022-11-05T21:19:16.539Z,14.23
2022-11-05T21:21:43.915Z,13.25
2022-11-05T21:24:11.023Z,13.65
2022-11-05T21:26:42.709Z,14.15
2022-11-05T21:29:11.013Z,14.27
2022-11-05T21:31:38.534Z,12.70
2022-11-05T21:34:05.308Z,13.32
2022-11-05T21:36:32.215Z,13.15
2022-11-05T21:39:00.330Z,12.77
2022-11-05T21:41:27.264Z,16.77
2022-11-05T21:43:54.089Z,15.82
2022-11-05T21:46:21.551Z,13.73
2022-11-05T21:48:48.306Z,16.35
2022-11-05T21:51:33.792Z,15.30
2022-11-05T21:54:19.437Z,13.15
2022-11-05T21:57:08.296Z,12.75
2022-11-05T21:59:51.365Z,10.77
2022-11-05T22:02:24.351Z,11.10
2022-11-05T22:04:53.444Z,16.00
2022-11-05T22:07:22.658Z,8.23
2022-11-05T22:09:49.837Z,9.93
2022-11-05T22:12:16.623Z,11.82
2022-11-05T22:14:45.116Z,9.55
2022-11-05T22:17:12.568Z,8.50
2022-11-05T22:19:39.567Z,10.52
2022-11-05T22:22:07.116Z,10.90
2022-11-05T22:24:35.672Z,11.20
2022-11-05T22:27:05.571Z,11.65
2022-11-05T22:29:34.295Z,7.60
2022-11-05T22:32:01.123Z,12.75
2022-11-05T22:34:28.212Z,6.82
2022-11-05T22:36:55.335Z,13.02
2022-11-05T22:39:22.502Z,13.25
2022-11-05T22:41:49.740Z,5.90
2022-11-05T22:44:17.299Z,13.88
2022-11-05T22:46:44.186Z,8.32
2022-11-05T22:49:11.968Z,5.88
2022-11-05T22:51:41.016Z,9.10
2022-11-05T22:54:08.006Z,6.90
2022-11-05T22:56:38.204Z,7.78
2022-11-05T22:59:06.146Z,8.43
2022-11-05T23:01:33.455Z,7.75
2022-11-05T23:04:00.796Z,7.22
2022-11-05T23:06:48.379Z,8.45
2022-11-05T23:09:37.348Z,7.03
2022-11-05T23:12:06.835Z,9.75
2022-11-05T23:14:35.564Z,8.27
2022-11-05T23:17:21.268Z,9.73
2022-11-05T23:20:06.700Z,8.18
2022-11-05T23:22:52.352Z,11.05
2022-11-05T23:25:23.498Z,13.40
2022-11-05T23:27:52.594Z,7.78
2022-11-05T23:30:22.648Z,9.10
2022-11-05T23:32:50.119Z,12.98
2022-11-05T23:35:17.919Z,10.50
2022-11-05T23:38:03.006Z,7.68
2022-11-05T23:40:52.471Z,10.55
2022-11-05T23:43:54.550Z,8.38
2022-11-05T23:46:40.883Z,8.63
2022-11-05T23:49:08.666Z,8.23
2022-11-05T23:51:35.320Z,6.70
2022-11-05T23:54:02.465Z,8.13
2022-11-05T23:56:31.346Z,7.53
2022-11-05T23:58:58.108Z,8.15
